If you wish to contribute or participate in the discussions about articles you are invited to join SKYbrary as a registered user

EBCI

From SKYbrary Wiki
Airport
ICAO: EBCI
Summary
Name Brussels South Charleroi Airport
Region Europe
Territory Belgium BE.gif
Location Charleroi
Main city served
Coordinates 50° 27' 45.7017", 4° 27' 42.252"
More airports
in EB
EBAW, EBLG
Runways
Designator Length Width Surface
7/25 2550 m8,366.142 ft 45 m147.638 ft ASP


METAR
Observation EBCI 261550Z 16006KT 130V210 3500 BR FEW003 BKN004 09/08 Q1011 NOSIG
Station Charleroi / Gosselies
Date/Time 26 November 2014 15:50:00
Wind direction 160°
Wind speed 06 kts
Lowest cloud amount few clouds
Temperature 9°C
Dew point 8°C
Humidity 93%
QNH 1011 hPa
Weather condition n/a


Charleroi Brussels South Airport

ICAO: EBCI IATA: CRL

Description

Charleroi airport is an international airport located in Gosselies, 46 km24.838 nm
46,000 m
150,918.635 ft
south of Brussels.

Climatology

Temperate Marine climate/Oceanic climate (Köppen climate classification Cfb). Moderately cool summer and comparatively warm winter with a temperature range of only 14°C287.15 K
57.2 °F
516.87 °R
. Prevailing south-westerly winds from the Atlantic Ocean.

Maps

Terrain

Airport Layout

Accidents & Serious Incidents at or in vicinity of EBCI

None on SKYbrary